createdAt,value
2018-12-03T00:00:22.541Z,63.33
2018-12-03T00:02:53.543Z,65.25
2018-12-03T00:05:21.623Z,64.75
2018-12-03T00:07:49.649Z,65.70
2018-12-03T00:10:17.663Z,60.98
2018-12-03T00:12:45.646Z,62.27
2018-12-03T00:15:13.685Z,61.98
2018-12-03T00:17:41.657Z,59.75
2018-12-03T00:20:09.881Z,61.30
2018-12-03T00:22:37.834Z,63.78
2018-12-03T00:25:06.156Z,65.10
2018-12-03T00:27:34.210Z,64.42
2018-12-03T00:30:02.254Z,61.75
2018-12-03T00:32:30.414Z,62.90
2018-12-03T00:34:58.381Z,63.20
2018-12-03T00:37:26.376Z,66.22
2018-12-03T00:39:54.365Z,66.40
2018-12-03T00:42:22.338Z,64.37
2018-12-03T00:44:50.281Z,70.17
2018-12-03T00:47:18.253Z,66.10
2018-12-03T00:49:46.227Z,62.88
2018-12-03T00:52:14.197Z,64.85
2018-12-03T00:54:42.175Z,57.38
2018-12-03T00:57:10.158Z,60.05
2018-12-03T00:59:38.216Z,61.95
2018-12-03T01:02:10.698Z,57.17
2018-12-03T01:04:38.670Z,61.45
2018-12-03T01:07:07.255Z,64.58
2018-12-03T01:09:35.274Z,61.40
2018-12-03T01:12:03.262Z,58.48
2018-12-03T01:14:31.253Z,60.15
2018-12-03T01:16:59.194Z,61.23
2018-12-03T01:19:27.182Z,63.90
2018-12-03T01:21:55.121Z,63.95
2018-12-03T01:24:23.100Z,63.78
2018-12-03T01:26:51.094Z,66.92
2018-12-03T01:29:19.049Z,62.98
2018-12-03T01:31:46.968Z,63.73
2018-12-03T01:34:15.020Z,64.05
2018-12-03T01:36:43.011Z,65.10
2018-12-03T01:39:10.965Z,68.28
2018-12-03T01:41:38.994Z,64.45
2018-12-03T01:44:06.943Z,65.28
2018-12-03T01:46:34.903Z,60.33
2018-12-03T01:49:02.878Z,62.43
2018-12-03T01:51:30.822Z,61.28
2018-12-03T01:53:58.799Z,64.97
2018-12-03T01:56:26.803Z,61.37
2018-12-03T01:58:54.765Z,60.15
2018-12-03T02:01:22.711Z,62.13
2018-12-03T02:03:50.785Z,64.45
2018-12-03T02:06:18.826Z,61.50
2018-12-03T02:08:46.826Z,62.25
2018-12-03T02:11:14.899Z,60.28
2018-12-03T02:13:42.848Z,60.43
2018-12-03T02:16:10.811Z,62.75
2018-12-03T02:18:38.798Z,61.68
2018-12-03T02:21:06.756Z,56.85
2018-12-03T02:23:34.681Z,58.78
2018-12-03T02:26:02.700Z,56.02
2018-12-03T02:28:30.735Z,58.95
2018-12-03T02:30:58.713Z,59.35
2018-12-03T02:33:26.699Z,62.45
2018-12-03T02:35:54.705Z,56.23
2018-12-03T02:38:22.702Z,56.95
2018-12-03T02:40:50.724Z,57.13
2018-12-03T02:43:18.696Z,57.13
2018-12-03T02:45:46.622Z,55.30
2018-12-03T02:48:14.574Z,55.25
2018-12-03T02:50:42.610Z,56.80
2018-12-03T02:53:10.554Z,53.58
2018-12-03T02:55:38.502Z,53.25
2018-12-03T02:58:06.461Z,55.70
2018-12-03T03:00:38.158Z,53.00
2018-12-03T03:03:06.386Z,55.60
2018-12-03T03:05:34.477Z,56.53
2018-12-03T03:08:02.486Z,54.25
2018-12-03T03:10:30.487Z,59.48
2018-12-03T03:12:58.423Z,55.65
2018-12-03T03:15:26.367Z,60.40
2018-12-03T03:17:54.318Z,61.05
2018-12-03T03:20:22.296Z,58.35
2018-12-03T03:22:50.245Z,60.52
2018-12-03T03:25:18.167Z,62.20
2018-12-03T03:27:46.167Z,57.10
2018-12-03T03:30:14.420Z,57.15
2018-12-03T03:32:42.547Z,59.85
2018-12-03T03:35:11.006Z,58.02
2018-12-03T03:37:39.006Z,58.28
2018-12-03T03:40:09.806Z,55.00
2018-12-03T03:42:37.779Z,57.65
2018-12-03T03:45:08.062Z,56.30
2018-12-03T03:47:36.062Z,51.77
2018-12-03T03:50:04.368Z,54.85
2018-12-03T03:52:32.324Z,53.45
2018-12-03T03:55:00.296Z,54.70
2018-12-03T03:57:28.244Z,54.58
2018-12-03T03:59:56.178Z,51.33
2018-12-03T04:02:24.131Z,54.30
2018-12-03T04:04:52.061Z,52.53
2018-12-03T04:07:20.026Z,53.83
2018-12-03T04:09:48.042Z,54.13
2018-12-03T04:12:16.106Z,54.83
2018-12-03T04:14:44.062Z,55.38
2018-12-03T04:17:12.014Z,51.85
2018-12-03T04:19:39.942Z,54.38
2018-12-03T04:22:07.912Z,53.73
2018-12-03T04:24:35.855Z,55.12
2018-12-03T04:27:03.846Z,52.70
2018-12-03T04:29:31.796Z,56.10
2018-12-03T04:31:59.730Z,55.03
2018-12-03T04:34:27.687Z,56.83
2018-12-03T04:36:55.655Z,52.15
2018-12-03T04:39:23.644Z,55.67
2018-12-03T04:41:51.607Z,57.05
2018-12-03T04:44:19.576Z,53.25
2018-12-03T04:46:47.571Z,54.83
2018-12-03T04:49:15.521Z,55.45
2018-12-03T04:51:43.429Z,56.88
2018-12-03T04:54:11.400Z,55.80
2018-12-03T04:56:39.346Z,54.27
2018-12-03T04:59:07.284Z,53.65
2018-12-03T05:01:35.261Z,52.58
2018-12-03T05:04:03.241Z,54.73
2018-12-03T05:06:31.261Z,56.15
2018-12-03T05:08:59.256Z,53.13
2018-12-03T05:11:27.261Z,52.88
2018-12-03T05:13:55.162Z,54.13
2018-12-03T05:16:23.189Z,55.35
2018-12-03T05:18:51.148Z,53.63
2018-12-03T05:21:19.124Z,53.60
2018-12-03T05:23:47.055Z,56.35
2018-12-03T05:26:15.031Z,55.17
2018-12-03T05:28:42.977Z,53.60
2018-12-03T05:31:10.945Z,52.62
2018-12-03T05:33:38.883Z,53.65
2018-12-03T05:36:06.848Z,55.52
2018-12-03T05:38:34.837Z,50.95
2018-12-03T05:41:02.792Z,51.30
2018-12-03T05:43:30.744Z,52.95
2018-12-03T05:45:58.734Z,52.10
2018-12-03T05:48:26.686Z,51.88
2018-12-03T05:50:54.641Z,51.45
2018-12-03T05:53:22.623Z,51.70
2018-12-03T05:55:50.587Z,52.75
2018-12-03T05:58:18.563Z,51.77
2018-12-03T06:00:46.661Z,54.25
2018-12-03T06:03:14.661Z,52.33
2018-12-03T06:05:42.698Z,56.85
2018-12-03T06:08:10.744Z,58.55
2018-12-03T06:10:38.714Z,59.13
2018-12-03T06:13:06.678Z,55.65
2018-12-03T06:15:34.614Z,55.98
2018-12-03T06:18:02.606Z,55.92
2018-12-03T06:20:30.610Z,56.45
2018-12-03T06:22:58.689Z,53.87
2018-12-03T06:25:27.301Z,57.95
2018-12-03T06:27:55.335Z,55.10
2018-12-03T06:30:24.109Z,55.95
2018-12-03T06:32:52.105Z,55.92
2018-12-03T06:35:20.242Z,55.60
2018-12-03T06:37:48.326Z,55.23
2018-12-03T06:40:17.673Z,57.13
2018-12-03T06:42:45.662Z,54.65
2018-12-03T06:45:15.001Z,53.05
2018-12-03T06:47:50.350Z,54.48
2018-12-03T06:50:18.305Z,57.55
2018-12-03T06:52:46.253Z,57.90
2018-12-03T06:55:14.220Z,54.30
2018-12-03T06:57:42.201Z,58.23
2018-12-03T07:00:11.715Z,55.70
2018-12-03T07:02:39.706Z,58.70
2018-12-03T07:05:08.242Z,57.03
2018-12-03T07:07:36.210Z,58.20
2018-12-03T07:10:05.492Z,62.05
2018-12-03T07:12:33.535Z,61.35
2018-12-03T07:15:01.506Z,57.25
2018-12-03T07:17:29.485Z,59.60
2018-12-03T07:19:57.451Z,55.88
2018-12-03T07:22:25.442Z,54.25
2018-12-03T07:24:53.427Z,55.70
2018-12-03T07:27:21.364Z,55.92
2018-12-03T07:29:52.920Z,55.43
2018-12-03T07:32:17.376Z,50.33
2018-12-03T07:34:45.327Z,49.77
2018-12-03T07:37:13.287Z,54.23
2018-12-03T07:39:48.050Z,53.65
2018-12-03T07:42:16.018Z,52.83
2018-12-03T07:44:44.026Z,54.05
2018-12-03T07:47:11.954Z,56.98
2018-12-03T07:49:39.896Z,56.35
2018-12-03T07:52:07.842Z,52.33
2018-12-03T07:54:35.817Z,50.60
2018-12-03T07:57:03.833Z,55.08
2018-12-03T07:59:31.801Z,53.00
2018-12-03T08:01:59.774Z,54.13
2018-12-03T08:04:27.761Z,51.48
2018-12-03T08:06:55.722Z,54.50
2018-12-03T08:09:23.675Z,54.42
2018-12-03T08:11:51.723Z,54.83
2018-12-03T08:14:19.678Z,52.20
2018-12-03T08:16:47.639Z,53.58
2018-12-03T08:19:15.563Z,50.50
2018-12-03T08:21:43.534Z,49.00
2018-12-03T08:24:12.209Z,50.10
2018-12-03T08:26:40.202Z,50.25
2018-12-03T08:29:08.194Z,53.78
2018-12-03T08:31:36.201Z,50.23
2018-12-03T08:34:04.338Z,50.52
2018-12-03T08:36:32.276Z,50.28
2018-12-03T08:39:00.247Z,49.70
2018-12-03T08:41:28.227Z,49.95
2018-12-03T08:43:56.204Z,49.05
2018-12-03T08:46:24.213Z,49.77
2018-12-03T08:48:52.177Z,49.58
2018-12-03T08:51:20.187Z,49.08
2018-12-03T08:53:48.376Z,48.10
2018-12-03T08:56:16.355Z,47.43
2018-12-03T08:58:44.324Z,49.13
2018-12-03T09:01:13.210Z,48.25
2018-12-03T09:03:41.558Z,46.88
2018-12-03T09:06:10.159Z,46.42
2018-12-03T09:08:38.136Z,42.70
2018-12-03T09:11:08.255Z,42.57
2018-12-03T09:13:36.214Z,41.47
2018-12-03T09:16:04.217Z,44.67
2018-12-03T09:18:32.769Z,41.27
2018-12-03T09:21:00.837Z,40.70
2018-12-03T09:23:28.829Z,39.40
2018-12-03T09:25:56.752Z,41.70
2018-12-03T09:28:24.707Z,40.93
2018-12-03T09:30:52.666Z,39.27
2018-12-03T09:33:20.617Z,37.40
2018-12-03T09:35:48.608Z,37.87
2018-12-03T09:38:16.551Z,38.60
2018-12-03T09:40:44.501Z,39.93
2018-12-03T09:43:12.509Z,40.13
2018-12-03T09:45:40.519Z,38.97
2018-12-03T09:48:08.486Z,40.50
2018-12-03T09:50:36.460Z,41.17
2018-12-03T09:53:04.646Z,40.57
2018-12-03T09:55:32.780Z,41.10
2018-12-03T09:58:07.146Z,39.60
2018-12-03T10:00:35.125Z,40.93
2018-12-03T10:03:05.500Z,40.27
2018-12-03T10:05:34.915Z,41.70
2018-12-03T10:08:02.924Z,42.03
2018-12-03T10:10:30.878Z,37.67
2018-12-03T10:13:02.840Z,38.80
2018-12-03T10:15:30.899Z,37.63
2018-12-03T10:17:58.856Z,35.10
2018-12-03T10:20:26.833Z,38.23
2018-12-03T10:22:54.836Z,37.63
2018-12-03T10:25:22.825Z,35.63
2018-12-03T10:27:50.920Z,33.13
2018-12-03T10:30:19.674Z,33.93
2018-12-03T10:32:48.373Z,34.33
2018-12-03T10:35:16.324Z,32.83
2018-12-03T10:37:44.306Z,32.63
2018-12-03T10:40:16.863Z,35.00
2018-12-03T10:42:45.263Z,32.33
2018-12-03T10:45:15.026Z,34.00
2018-12-03T10:47:43.096Z,34.33
2018-12-03T10:50:11.939Z,34.87
2018-12-03T10:52:39.892Z,32.10
2018-12-03T10:55:08.507Z,34.37
2018-12-03T10:57:37.006Z,33.17
2018-12-03T11:00:11.966Z,35.50
2018-12-03T11:02:45.313Z,36.63
2018-12-03T11:05:18.698Z,35.10
2018-12-03T11:07:46.746Z,33.27
2018-12-03T11:10:14.702Z,30.53
2018-12-03T11:12:43.018Z,32.17
2018-12-03T11:15:12.947Z,29.37
2018-12-03T11:17:40.911Z,26.40
2018-12-03T11:20:09.029Z,29.70
2018-12-03T11:22:37.021Z,29.80
2018-12-03T11:25:06.885Z,31.20
2018-12-03T11:27:35.345Z,29.20
2018-12-03T11:30:03.849Z,29.07
2018-12-03T11:32:31.813Z,29.20
2018-12-03T11:35:05.746Z,27.43
2018-12-03T11:37:27.863Z,27.47
2018-12-03T11:39:58.236Z,28.30
2018-12-03T11:42:27.641Z,27.67
2018-12-03T11:44:55.587Z,26.73
2018-12-03T11:47:23.586Z,28.57
2018-12-03T11:49:51.566Z,29.60
2018-12-03T11:52:19.549Z,29.63
2018-12-03T11:54:47.514Z,31.77
2018-12-03T11:57:15.496Z,31.17
2018-12-03T11:59:43.430Z,29.07
2018-12-03T12:02:11.393Z,29.67
2018-12-03T12:04:39.385Z,27.63
2018-12-03T12:07:07.368Z,29.23
2018-12-03T12:09:35.321Z,26.60
2018-12-03T12:12:03.440Z,28.77
2018-12-03T12:14:31.435Z,29.20
2018-12-03T12:16:59.471Z,27.93
2018-12-03T12:19:27.442Z,26.87
2018-12-03T12:21:55.403Z,30.10
2018-12-03T12:24:23.392Z,27.40
2018-12-03T12:26:52.093Z,28.20
2018-12-03T12:29:20.048Z,26.80
2018-12-03T12:31:48.020Z,26.13
2018-12-03T12:34:15.994Z,26.03
2018-12-03T12:36:43.986Z,25.77
2018-12-03T12:39:12.007Z,28.40
2018-12-03T12:41:40.439Z,27.67
2018-12-03T12:44:09.034Z,28.50
2018-12-03T12:46:37.854Z,27.10
2018-12-03T12:49:06.195Z,27.97
2018-12-03T12:51:34.140Z,26.33
2018-12-03T12:54:02.096Z,27.40
2018-12-03T12:56:30.091Z,28.53
2018-12-03T12:58:58.062Z,28.50
2018-12-03T13:01:26.075Z,29.27
2018-12-03T13:03:54.087Z,26.97
2018-12-03T13:06:22.107Z,25.93
2018-12-03T13:08:50.106Z,26.50
2018-12-03T13:11:18.133Z,26.23
2018-12-03T13:13:46.122Z,25.80
2018-12-03T13:16:14.081Z,26.67
2018-12-03T13:18:42.086Z,25.33
2018-12-03T13:21:10.048Z,27.23
2018-12-03T13:23:37.979Z,27.57
2018-12-03T13:26:06.485Z,25.20
2018-12-03T13:28:34.464Z,25.03
2018-12-03T13:31:02.478Z,24.90
2018-12-03T13:33:30.445Z,23.20
2018-12-03T13:35:58.395Z,20.90
2018-12-03T13:38:26.332Z,21.20
2018-12-03T13:40:54.325Z,22.73
2018-12-03T13:43:22.354Z,22.37
2018-12-03T13:45:50.307Z,21.00
2018-12-03T13:48:18.306Z,20.67
2018-12-03T13:50:46.330Z,21.90
2018-12-03T13:53:14.317Z,19.40
2018-12-03T13:55:42.302Z,18.57
2018-12-03T13:58:10.240Z,17.70
2018-12-03T14:00:38.209Z,19.63
2018-12-03T14:03:10.352Z,18.50
2018-12-03T14:06:11.155Z,19.73
2018-12-03T14:08:44.553Z,19.43
2018-12-03T14:11:17.648Z,19.80
2018-12-03T14:13:51.121Z,20.10
2018-12-03T14:16:26.543Z,19.07
2018-12-03T14:18:56.291Z,19.57
2018-12-03T14:21:27.108Z,19.97
2018-12-03T14:23:56.049Z,18.67
2018-12-03T14:26:24.126Z,18.00
2018-12-03T14:28:52.124Z,19.50
2018-12-03T14:31:20.145Z,20.40
2018-12-03T14:33:48.157Z,21.30
2018-12-03T14:36:16.090Z,22.20
2018-12-03T14:38:44.047Z,19.07
2018-12-03T14:41:12.050Z,18.80
2018-12-03T14:43:40.056Z,19.37
2018-12-03T14:46:08.005Z,17.63
2018-12-03T14:48:35.966Z,18.17
2018-12-03T14:51:03.981Z,17.70
2018-12-03T14:53:32.033Z,18.60
2018-12-03T14:56:00.003Z,18.30
2018-12-03T14:58:27.976Z,17.30
2018-12-03T15:01:25.325Z,18.37
2018-12-03T15:03:53.309Z,18.97
2018-12-03T15:06:21.281Z,17.90
2018-12-03T15:08:49.325Z,18.63
2018-12-03T15:11:17.389Z,18.90
2018-12-03T15:13:45.370Z,20.10
2018-12-03T15:16:13.346Z,21.07
2018-12-03T15:18:41.284Z,21.83
2018-12-03T15:21:09.271Z,21.73
2018-12-03T15:23:37.308Z,23.67
2018-12-03T15:26:05.223Z,22.10
2018-12-03T15:28:33.230Z,25.13
2018-12-03T15:31:01.269Z,23.87
2018-12-03T15:33:29.202Z,25.63
2018-12-03T15:35:57.145Z,30.57
2018-12-03T15:38:25.174Z,28.40
2018-12-03T15:40:53.170Z,28.70
2018-12-03T15:43:21.100Z,29.00
2018-12-03T15:45:49.117Z,29.67
2018-12-03T15:48:17.098Z,26.97
2018-12-03T15:50:45.246Z,25.97
2018-12-03T15:53:13.237Z,27.70
2018-12-03T15:55:41.237Z,27.50
2018-12-03T15:58:09.228Z,26.03
2018-12-03T16:00:38.316Z,25.23
2018-12-03T16:03:06.576Z,25.77
2018-12-03T16:05:34.535Z,27.63
2018-12-03T16:08:02.872Z,26.90
2018-12-03T16:10:30.890Z,27.50
2018-12-03T16:12:58.866Z,27.80
2018-12-03T16:15:26.849Z,27.87
2018-12-03T16:17:54.833Z,29.35
2018-12-03T16:20:22.795Z,29.82
2018-12-03T16:22:50.791Z,31.10
2018-12-03T16:25:18.815Z,29.50
2018-12-03T16:27:46.787Z,28.42
2018-12-03T16:30:16.353Z,28.10
2018-12-03T16:32:44.331Z,29.40
2018-12-03T16:35:12.329Z,29.92
2018-12-03T16:37:40.448Z,29.10
2018-12-03T16:40:08.710Z,29.95
2018-12-03T16:42:36.703Z,28.17
2018-12-03T16:45:05.485Z,30.37
2018-12-03T16:47:33.503Z,29.20
2018-12-03T16:50:01.475Z,30.27
2018-12-03T16:52:29.421Z,34.17
2018-12-03T16:54:57.411Z,32.33
2018-12-03T16:57:25.424Z,31.80
2018-12-03T16:59:53.627Z,33.33
2018-12-03T17:02:22.208Z,32.93
2018-12-03T17:04:50.400Z,31.73
2018-12-03T17:07:18.452Z,31.27
2018-12-03T17:09:46.471Z,31.23
2018-12-03T17:12:17.525Z,30.67
2018-12-03T17:14:46.338Z,28.17
2018-12-03T17:17:14.345Z,27.40
2018-12-03T17:20:02.636Z,27.87
2018-12-03T17:22:53.193Z,28.65
2018-12-03T17:25:22.756Z,25.70
2018-12-03T17:27:50.737Z,26.07
2018-12-03T17:30:18.779Z,27.10
2018-12-03T17:32:46.939Z,24.07
2018-12-03T17:35:15.273Z,25.13
2018-12-03T17:37:43.359Z,25.40
2018-12-03T17:40:11.576Z,25.17
2018-12-03T17:42:39.908Z,25.30
2018-12-03T17:45:10.070Z,32.50
2018-12-03T17:47:38.231Z,75.97
2018-12-03T17:50:07.243Z,27.32
2018-12-03T17:52:35.253Z,28.32
2018-12-03T17:55:03.333Z,28.60
2018-12-03T17:57:32.332Z,30.00
2018-12-03T18:00:00.566Z,29.70
2018-12-03T18:02:28.553Z,30.33
2018-12-03T18:04:56.530Z,31.97
2018-12-03T18:07:24.997Z,32.90
2018-12-03T18:09:53.261Z,32.23
2018-12-03T18:12:22.490Z,30.67
2018-12-03T18:14:50.862Z,33.05
2018-12-03T18:17:18.839Z,30.90
2018-12-03T18:19:46.798Z,31.85
2018-12-03T18:22:14.789Z,33.00
2018-12-03T18:24:42.779Z,32.10
2018-12-03T18:27:10.848Z,30.90
2018-12-03T18:29:38.795Z,29.23
2018-12-03T18:32:06.844Z,31.27
2018-12-03T18:34:34.866Z,30.32
2018-12-03T18:37:02.867Z,28.15
2018-12-03T18:39:30.863Z,28.97
2018-12-03T18:41:58.998Z,30.27
2018-12-03T18:44:27.182Z,27.10
2018-12-03T18:46:55.282Z,26.87
2018-12-03T18:49:25.180Z,26.70
2018-12-03T18:51:53.241Z,28.30
2018-12-03T18:54:21.281Z,26.30
2018-12-03T18:56:49.262Z,25.35
2018-12-03T18:59:17.313Z,27.90
2018-12-03T19:01:45.331Z,23.98
2018-12-03T19:04:15.268Z,23.63
2018-12-03T19:06:43.309Z,24.13
2018-12-03T19:09:11.379Z,25.82
2018-12-03T19:11:39.512Z,26.37
2018-12-03T19:14:07.481Z,27.10
2018-12-03T19:16:35.503Z,26.10
2018-12-03T19:19:03.731Z,24.00
2018-12-03T19:21:31.742Z,21.83
2018-12-03T19:24:02.703Z,22.15
2018-12-03T19:26:30.681Z,24.27
2018-12-03T19:28:59.887Z,22.17
2018-12-03T19:31:31.354Z,22.77
2018-12-03T19:34:01.796Z,26.27
2018-12-03T19:36:31.903Z,23.67
2018-12-03T19:39:02.131Z,23.27
2018-12-03T19:41:30.289Z,27.42
2018-12-03T19:43:58.259Z,26.70
2018-12-03T19:46:26.349Z,30.13
2018-12-03T19:48:54.359Z,24.77
2018-12-03T19:51:22.880Z,25.60
2018-12-03T19:53:51.231Z,20.70
2018-12-03T19:56:20.175Z,22.30
2018-12-03T19:58:49.138Z,24.20
2018-12-03T20:01:17.163Z,21.57
2018-12-03T20:03:45.182Z,24.20
2018-12-03T20:06:13.343Z,23.07
2018-12-03T20:08:41.460Z,22.25
2018-12-03T20:11:09.471Z,23.07
2018-12-03T20:13:37.653Z,23.50
2018-12-03T20:16:05.715Z,20.70
2018-12-03T20:18:33.766Z,18.60
2018-12-03T20:21:06.299Z,17.12
2018-12-03T20:23:36.551Z,19.17
2018-12-03T20:26:09.281Z,19.17
2018-12-03T20:28:42.002Z,18.83
2018-12-03T20:31:14.425Z,15.87
2018-12-03T20:34:01.592Z,16.50
2018-12-03T20:37:32.999Z,17.23
2018-12-03T20:40:09.493Z,16.90
2018-12-03T20:42:38.446Z,15.75
2018-12-03T20:45:16.231Z,16.20
2018-12-03T20:47:45.833Z,13.75
2018-12-03T20:50:20.025Z,16.80
2018-12-03T20:52:48.779Z,15.87
2018-12-03T20:55:49.627Z,15.47
2018-12-03T20:58:17.855Z,14.20
2018-12-03T21:00:46.923Z,35.08
2018-12-03T21:03:15.181Z,19.20
2018-12-03T21:05:43.314Z,19.25
2018-12-03T21:08:11.402Z,17.73
2018-12-03T21:10:39.571Z,15.90
2018-12-03T21:13:07.746Z,14.83
2018-12-03T21:15:35.961Z,15.33
2018-12-03T21:18:04.158Z,13.50
2018-12-03T21:20:36.894Z,13.90
2018-12-03T21:23:05.406Z,13.28
2018-12-03T21:25:33.391Z,13.05
2018-12-03T21:28:01.561Z,14.20
2018-12-03T21:30:29.730Z,13.10
2018-12-03T21:32:57.951Z,13.22
2018-12-03T21:35:25.997Z,14.40
2018-12-03T21:37:54.405Z,16.30
2018-12-03T21:40:23.837Z,13.35
2018-12-03T21:42:51.790Z,12.68
2018-12-03T21:45:19.902Z,16.87
2018-12-03T21:47:47.971Z,17.35
2018-12-03T21:50:16.034Z,21.80
2018-12-03T21:52:44.006Z,19.37
2018-12-03T21:55:13.154Z,16.20
2018-12-03T21:57:41.358Z,22.30
2018-12-03T22:00:14.946Z,20.02
2018-12-03T22:02:43.258Z,21.77
2018-12-03T22:05:11.352Z,22.85
2018-12-03T22:07:39.324Z,23.50
2018-12-03T22:10:07.574Z,21.50
2018-12-03T22:12:35.590Z,23.98
2018-12-03T22:15:03.765Z,24.90
2018-12-03T22:17:31.852Z,26.00
2018-12-03T22:19:59.875Z,25.90
2018-12-03T22:22:27.840Z,26.75
2018-12-03T22:24:55.903Z,25.95
2018-12-03T22:27:23.861Z,27.02
2018-12-03T22:29:51.892Z,30.50
2018-12-03T22:32:19.942Z,31.10
2018-12-03T22:34:47.962Z,35.38
2018-12-03T22:37:15.944Z,31.40
2018-12-03T22:39:46.342Z,33.85
2018-12-03T22:42:13.917Z,34.53
2018-12-03T22:44:41.905Z,36.10
2018-12-03T22:47:09.857Z,33.65
2018-12-03T22:49:37.856Z,30.23
2018-12-03T22:52:05.869Z,34.65
2018-12-03T22:54:33.861Z,33.70
2018-12-03T22:57:01.865Z,33.02
2018-12-03T22:59:29.875Z,30.10
2018-12-03T23:01:57.846Z,31.85
2018-12-03T23:04:25.842Z,28.95
2018-12-03T23:06:53.913Z,29.70
2018-12-03T23:09:21.933Z,26.57
2018-12-03T23:11:50.030Z,25.20
2018-12-03T23:14:18.029Z,26.70
2018-12-03T23:16:46.047Z,23.50
2018-12-03T23:19:14.137Z,25.35
2018-12-03T23:21:42.117Z,23.50
2018-12-03T23:24:10.083Z,24.65
2018-12-03T23:26:38.185Z,23.60
2018-12-03T23:29:06.237Z,23.32
2018-12-03T23:31:34.206Z,24.90
2018-12-03T23:34:02.250Z,23.25
2018-12-03T23:36:30.261Z,22.42
2018-12-03T23:38:58.287Z,23.12
2018-12-03T23:41:26.279Z,21.60
2018-12-03T23:43:54.276Z,24.90
2018-12-03T23:46:22.265Z,23.60
2018-12-03T23:48:50.231Z,26.07
2018-12-03T23:51:18.188Z,23.45
2018-12-03T23:53:46.350Z,23.83
2018-12-03T23:56:14.289Z,22.73
2018-12-03T23:58:42.260Z,23.38
